CheckWX is a tool to help pilots better visualize weather data.  It is not intended as a substitute for an official pre-flight weather briefing.

16:32:17 UTC

KCBF METAR
Council Bluffs Municipal Airport
Council Bluffs, Iowa, USA
Current

17 mins ago

KCBF 291615Z AUTO 33009G16KT 10SM CLR 20/09 A3018 RMK AO2
Observed
May-29 @ 16:15 UTC
Wind
  • 330° at 9 KTS
  • Gusting to 16 KTS
Visibility
Flight Rules
VFR
Cloud Levels
  • Clear skies
Temperature
20°C / 68°F
Dewpoint
C / 48°F
Humidity
49%
Altimeter
30.18" Hg
Pressure
1022.02 hPa
Previous

37 mins ago

KCBF 291555Z AUTO 34012KT 10SM CLR 20/08 A3018 RMK AO2
Observed
May-29 @ 15:55 UTC
Wind
  • 340° at 12 KTS
Visibility
Flight Rules
VFR
Cloud Levels
  • Clear skies
Temperature
20°C / 68°F
Dewpoint
C / 46°F
Humidity
46%
Altimeter
30.18" Hg
Pressure
1022.02 hPa
Previous

57 mins ago

KCBF 291535Z AUTO 33008KT 10SM CLR 20/09 A3018 RMK AO2
Observed
May-29 @ 15:35 UTC
Wind
  • 330° at 8 KTS
Visibility
Flight Rules
VFR
Cloud Levels
  • Clear skies
Temperature
20°C / 68°F
Dewpoint
C / 48°F
Humidity
49%
Altimeter
30.18" Hg
Pressure
1022.02 hPa